sensor_id;sensor_type;location;lat;lon;timestamp;P1;durP1;ratioP1;P2;durP2;ratioP2
52360;SDS011;38294;42.966;1.608;2022-11-15T03:24:22;15.23;;;8.10;;
52360;SDS011;38294;42.966;1.608;2022-11-15T03:26:50;12.85;;;8.05;;
52360;SDS011;38294;42.966;1.608;2022-11-15T03:29:26;15.75;;;8.75;;
52360;SDS011;38294;42.966;1.608;2022-11-15T03:31:58;12.95;;;7.85;;
52360;SDS011;38294;42.966;1.608;2022-11-15T03:34:29;14.20;;;8.02;;
52360;SDS011;38294;42.966;1.608;2022-11-15T03:39:25;12.23;;;6.95;;
52360;SDS011;38294;42.966;1.608;2022-11-15T03:41:57;11.48;;;7.05;;
52360;SDS011;38294;42.966;1.608;2022-11-15T03:44:39;11.43;;;6.85;;
52360;SDS011;38294;42.966;1.608;2022-11-15T03:47:31;17.27;;;8.18;;
52360;SDS011;38294;42.966;1.608;2022-11-15T03:50:10;14.35;;;7.50;;
52360;SDS011;38294;42.966;1.608;2022-11-15T03:52:38;13.57;;;7.30;;
52360;SDS011;38294;42.966;1.608;2022-11-15T03:55:06;11.95;;;6.88;;
52360;SDS011;38294;42.966;1.608;2022-11-15T03:57:35;13.05;;;6.63;;
52360;SDS011;38294;42.966;1.608;2022-11-15T04:00:01;10.05;;;6.05;;
52360;SDS011;38294;42.966;1.608;2022-11-15T04:02:26;9.27;;;6.43;;
52360;SDS011;38294;42.966;1.608;2022-11-15T04:04:53;10.15;;;6.07;;
52360;SDS011;38294;42.966;1.608;2022-11-15T04:07:18;13.88;;;6.50;;
52360;SDS011;38294;42.966;1.608;2022-11-15T04:09:44;15.70;;;6.78;;
52360;SDS011;38294;42.966;1.608;2022-11-15T04:12:28;10.02;;;6.20;;
52360;SDS011;38294;42.966;1.608;2022-11-15T04:14:59;13.88;;;6.63;;
52360;SDS011;38294;42.966;1.608;2022-11-15T04:17:39;8.60;;;6.18;;
52360;SDS011;38294;42.966;1.608;2022-11-15T04:20:05;15.35;;;7.38;;
52360;SDS011;38294;42.966;1.608;2022-11-15T04:22:55;11.27;;;5.97;;
52360;SDS011;38294;42.966;1.608;2022-11-15T04:25:41;13.15;;;6.72;;
52360;SDS011;38294;42.966;1.608;2022-11-15T04:28:06;14.35;;;6.78;;
52360;SDS011;38294;42.966;1.608;2022-11-15T04:30:32;11.70;;;6.45;;
52360;SDS011;38294;42.966;1.608;2022-11-15T04:32:57;10.80;;;6.85;;
52360;SDS011;38294;42.966;1.608;2022-11-15T04:35:23;11.20;;;6.60;;
52360;SDS011;38294;42.966;1.608;2022-11-15T04:37:48;10.80;;;5.80;;
52360;SDS011;38294;42.966;1.608;2022-11-15T04:40:14;11.20;;;5.70;;
52360;SDS011;38294;42.966;1.608;2022-11-15T04:42:40;9.25;;;6.32;;
52360;SDS011;38294;42.966;1.608;2022-11-15T04:45:09;12.13;;;8.98;;
52360;SDS011;38294;42.966;1.608;2022-11-15T04:47:35;9.80;;;5.28;;
52360;SDS011;38294;42.966;1.608;2022-11-15T04:50:01;13.20;;;6.50;;
52360;SDS011;38294;42.966;1.608;2022-11-15T04:52:27;11.88;;;6.13;;
52360;SDS011;38294;42.966;1.608;2022-11-15T04:54:52;11.40;;;5.93;;
52360;SDS011;38294;42.966;1.608;2022-11-15T04:57:18;10.60;;;5.22;;
52360;SDS011;38294;42.966;1.608;2022-11-15T04:59:43;10.13;;;5.43;;
52360;SDS011;38294;42.966;1.608;2022-11-15T05:02:09;9.45;;;5.32;;
52360;SDS011;38294;42.966;1.608;2022-11-15T05:04:35;9.82;;;5.30;;
52360;SDS011;38294;42.966;1.608;2022-11-15T05:07:00;7.80;;;4.95;;
52360;SDS011;38294;42.966;1.608;2022-11-15T05:09:26;8.60;;;5.40;;
52360;SDS011;38294;42.966;1.608;2022-11-15T05:11:51;7.07;;;4.78;;
52360;SDS011;38294;42.966;1.608;2022-11-15T05:14:17;5.50;;;4.45;;
52360;SDS011;38294;42.966;1.608;2022-11-15T05:16:43;6.90;;;4.63;;
52360;SDS011;38294;42.966;1.608;2022-11-15T05:19:08;6.40;;;4.57;;
52360;SDS011;38294;42.966;1.608;2022-11-15T05:21:34;9.75;;;5.07;;
52360;SDS011;38294;42.966;1.608;2022-11-15T05:24:00;9.48;;;4.60;;
52360;SDS011;38294;42.966;1.608;2022-11-15T05:26:26;6.93;;;4.20;;
52360;SDS011;38294;42.966;1.608;2022-11-15T05:28:56;9.25;;;4.50;;
52360;SDS011;38294;42.966;1.608;2022-11-15T05:31:23;9.52;;;4.90;;
52360;SDS011;38294;42.966;1.608;2022-11-15T05:33:50;11.00;;;5.40;;
52360;SDS011;38294;42.966;1.608;2022-11-15T05:39:10;8.23;;;5.22;;
52360;SDS011;38294;42.966;1.608;2022-11-15T05:41:39;7.93;;;5.40;;
52360;SDS011;38294;42.966;1.608;2022-11-15T05:44:10;12.60;;;5.32;;
52360;SDS011;38294;42.966;1.608;2022-11-15T05:46:38;5.95;;;4.57;;
52360;SDS011;38294;42.966;1.608;2022-11-15T05:49:05;7.10;;;5.13;;
52360;SDS011;38294;42.966;1.608;2022-11-15T05:51:35;6.85;;;4.70;;
52360;SDS011;38294;42.966;1.608;2022-11-15T05:54:00;7.25;;;4.05;;
52360;SDS011;38294;42.966;1.608;2022-11-15T05:56:27;7.70;;;4.72;;
52360;SDS011;38294;42.966;1.608;2022-11-15T05:58:54;8.55;;;4.80;;
52360;SDS011;38294;42.966;1.608;2022-11-15T06:01:21;6.38;;;4.68;;
52360;SDS011;38294;42.966;1.608;2022-11-15T06:03:48;9.88;;;4.95;;
52360;SDS011;38294;42.966;1.608;2022-11-15T06:06:13;10.68;;;5.75;;
52360;SDS011;38294;42.966;1.608;2022-11-15T06:08:39;10.95;;;5.28;;
52360;SDS011;38294;42.966;1.608;2022-11-15T06:11:05;7.28;;;4.80;;
52360;SDS011;38294;42.966;1.608;2022-11-15T06:13:31;7.75;;;4.88;;
52360;SDS011;38294;42.966;1.608;2022-11-15T06:15:57;8.73;;;4.80;;
52360;SDS011;38294;42.966;1.608;2022-11-15T06:18:23;6.97;;;5.03;;
52360;SDS011;38294;42.966;1.608;2022-11-15T06:20:49;9.48;;;5.70;;
52360;SDS011;38294;42.966;1.608;2022-11-15T06:23:14;8.60;;;4.78;;
52360;SDS011;38294;42.966;1.608;2022-11-15T06:25:40;7.50;;;4.90;;
52360;SDS011;38294;42.966;1.608;2022-11-15T06:28:05;7.95;;;4.95;;
52360;SDS011;38294;42.966;1.608;2022-11-15T06:30:31;8.80;;;5.07;;
52360;SDS011;38294;42.966;1.608;2022-11-15T06:33:00;8.93;;;5.32;;
52360;SDS011;38294;42.966;1.608;2022-11-15T06:35:27;12.27;;;5.55;;
52360;SDS011;38294;42.966;1.608;2022-11-15T06:37:53;7.18;;;4.75;;
52360;SDS011;38294;42.966;1.608;2022-11-15T06:40:19;10.75;;;4.75;;
52360;SDS011;38294;42.966;1.608;2022-11-15T06:42:45;8.20;;;4.63;;
52360;SDS011;38294;42.966;1.608;2022-11-15T06:45:10;9.15;;;5.13;;
52360;SDS011;38294;42.966;1.608;2022-11-15T06:47:42;9.40;;;4.78;;
52360;SDS011;38294;42.966;1.608;2022-11-15T06:50:09;15.85;;;6.60;;
52360;SDS011;38294;42.966;1.608;2022-11-15T06:52:35;14.95;;;7.10;;
52360;SDS011;38294;42.966;1.608;2022-11-15T06:55:00;12.77;;;7.15;;
52360;SDS011;38294;42.966;1.608;2022-11-15T06:57:26;15.88;;;7.95;;
52360;SDS011;38294;42.966;1.608;2022-11-15T06:59:51;12.27;;;7.35;;
52360;SDS011;38294;42.966;1.608;2022-11-15T07:02:17;13.68;;;7.47;;
52360;SDS011;38294;42.966;1.608;2022-11-15T07:04:43;16.98;;;7.70;;
52360;SDS011;38294;42.966;1.608;2022-11-15T07:07:09;9.60;;;5.75;;
52360;SDS011;38294;42.966;1.608;2022-11-15T07:09:34;12.52;;;6.20;;
52360;SDS011;38294;42.966;1.608;2022-11-15T07:12:00;13.02;;;6.20;;
52360;SDS011;38294;42.966;1.608;2022-11-15T07:14:25;11.73;;;7.00;;
52360;SDS011;38294;42.966;1.608;2022-11-15T07:16:51;11.15;;;5.82;;
52360;SDS011;38294;42.966;1.608;2022-11-15T07:19:16;10.65;;;5.68;;
52360;SDS011;38294;42.966;1.608;2022-11-15T07:21:42;11.13;;;5.80;;
52360;SDS011;38294;42.966;1.608;2022-11-15T07:24:07;10.85;;;6.15;;
52360;SDS011;38294;42.966;1.608;2022-11-15T07:26:33;9.13;;;5.57;;
52360;SDS011;38294;42.966;1.608;2022-11-15T07:28:58;9.35;;;6.15;;
52360;SDS011;38294;42.966;1.608;2022-11-15T07:31:24;9.02;;;4.90;;
52360;SDS011;38294;42.966;1.608;2022-11-15T07:33:50;7.78;;;4.63;;
52360;SDS011;38294;42.966;1.608;2022-11-15T07:36:15;6.50;;;4.55;;
52360;SDS011;38294;42.966;1.608;2022-11-15T07:38:41;7.72;;;4.53;;
52360;SDS011;38294;42.966;1.608;2022-11-15T07:41:07;7.43;;;4.30;;
52360;SDS011;38294;42.966;1.608;2022-11-15T07:43:32;8.13;;;4.22;;
52360;SDS011;38294;42.966;1.608;2022-11-15T07:45:59;5.32;;;3.70;;
52360;SDS011;38294;42.966;1.608;2022-11-15T07:48:29;7.22;;;4.70;;
52360;SDS011;38294;42.966;1.608;2022-11-15T07:50:55;9.10;;;4.30;;
52360;SDS011;38294;42.966;1.608;2022-11-15T07:53:20;8.07;;;5.05;;
52360;SDS011;38294;42.966;1.608;2022-11-15T07:55:46;6.95;;;4.15;;
52360;SDS011;38294;42.966;1.608;2022-11-15T07:58:12;6.00;;;4.20;;
52360;SDS011;38294;42.966;1.608;2022-11-15T08:00:38;8.77;;;4.07;;
52360;SDS011;38294;42.966;1.608;2022-11-15T08:03:07;9.05;;;4.25;;
52360;SDS011;38294;42.966;1.608;2022-11-15T08:05:35;8.55;;;4.35;;
52360;SDS011;38294;42.966;1.608;2022-11-15T08:08:02;8.02;;;4.72;;
52360;SDS011;38294;42.966;1.608;2022-11-15T08:10:28;8.73;;;4.43;;
52360;SDS011;38294;42.966;1.608;2022-11-15T08:13:01;9.10;;;4.38;;
52360;SDS011;38294;42.966;1.608;2022-11-15T08:15:28;16.42;;;5.13;;
52360;SDS011;38294;42.966;1.608;2022-11-15T08:17:58;14.00;;;4.70;;
52360;SDS011;38294;42.966;1.608;2022-11-15T08:20:25;7.75;;;5.13;;
52360;SDS011;38294;42.966;1.608;2022-11-15T08:22:55;10.63;;;4.72;;
52360;SDS011;38294;42.966;1.608;2022-11-15T08:25:22;16.27;;;5.40;;
52360;SDS011;38294;42.966;1.608;2022-11-15T08:27:50;7.50;;;5.00;;
52360;SDS011;38294;42.966;1.608;2022-11-15T08:30:16;11.48;;;5.47;;
52360;SDS011;38294;42.966;1.608;2022-11-15T08:32:42;10.00;;;4.78;;
52360;SDS011;38294;42.966;1.608;2022-11-15T08:35:08;7.88;;;5.30;;
52360;SDS011;38294;42.966;1.608;2022-11-15T08:37:33;8.68;;;5.00;;
52360;SDS011;38294;42.966;1.608;2022-11-15T08:39:59;8.25;;;5.45;;
52360;SDS011;38294;42.966;1.608;2022-11-15T08:42:24;10.73;;;5.60;;
52360;SDS011;38294;42.966;1.608;2022-11-15T08:44:50;9.68;;;4.93;;
52360;SDS011;38294;42.966;1.608;2022-11-15T08:47:15;10.73;;;5.35;;
52360;SDS011;38294;42.966;1.608;2022-11-15T08:49:41;11.23;;;5.70;;
52360;SDS011;38294;42.966;1.608;2022-11-15T08:52:06;8.98;;;5.50;;
52360;SDS011;38294;42.966;1.608;2022-11-15T08:54:32;9.20;;;5.85;;
52360;SDS011;38294;42.966;1.608;2022-11-15T08:56:58;9.70;;;5.70;;
52360;SDS011;38294;42.966;1.608;2022-11-15T08:59:23;8.07;;;5.45;;
52360;SDS011;38294;42.966;1.608;2022-11-15T09:01:49;8.32;;;5.43;;
52360;SDS011;38294;42.966;1.608;2022-11-15T09:04:15;11.23;;;4.72;;
52360;SDS011;38294;42.966;1.608;2022-11-15T09:06:40;8.13;;;4.60;;
52360;SDS011;38294;42.966;1.608;2022-11-15T09:09:06;9.07;;;4.53;;
52360;SDS011;38294;42.966;1.608;2022-11-15T09:11:31;10.15;;;4.20;;
52360;SDS011;38294;42.966;1.608;2022-11-15T09:13:57;7.53;;;4.13;;
52360;SDS011;38294;42.966;1.608;2022-11-15T09:16:23;9.07;;;5.00;;
52360;SDS011;38294;42.966;1.608;2022-11-15T09:18:48;6.78;;;4.40;;
52360;SDS011;38294;42.966;1.608;2022-11-15T09:21:14;6.53;;;4.40;;
52360;SDS011;38294;42.966;1.608;2022-11-15T09:23:39;5.75;;;4.38;;
52360;SDS011;38294;42.966;1.608;2022-11-15T09:26:05;6.30;;;3.92;;
52360;SDS011;38294;42.966;1.608;2022-11-15T09:28:32;7.50;;;4.25;;
52360;SDS011;38294;42.966;1.608;2022-11-15T09:33:25;8.35;;;4.07;;
52360;SDS011;38294;42.966;1.608;2022-11-15T09:35:51;7.63;;;4.65;;
52360;SDS011;38294;42.966;1.608;2022-11-15T09:38:17;6.80;;;4.13;;
52360;SDS011;38294;42.966;1.608;2022-11-15T09:40:43;7.97;;;4.30;;
52360;SDS011;38294;42.966;1.608;2022-11-15T09:48:51;11.02;;;4.25;;
52360;SDS011;38294;42.966;1.608;2022-11-15T09:51:26;7.18;;;3.80;;
52360;SDS011;38294;42.966;1.608;2022-11-15T09:56:34;4.28;;;3.25;;
52360;SDS011;38294;42.966;1.608;2022-11-15T10:01:46;4.97;;;2.80;;
52360;SDS011;38294;42.966;1.608;2022-11-15T10:04:23;9.20;;;3.10;;
52360;SDS011;38294;42.966;1.608;2022-11-15T10:06:55;4.35;;;3.00;;
52360;SDS011;38294;42.966;1.608;2022-11-15T10:09:36;6.03;;;3.63;;
52360;SDS011;38294;42.966;1.608;2022-11-15T10:12:23;7.18;;;4.32;;
52360;SDS011;38294;42.966;1.608;2022-11-15T10:14:50;7.50;;;4.10;;
52360;SDS011;38294;42.966;1.608;2022-11-15T10:22:45;8.65;;;3.53;;
52360;SDS011;38294;42.966;1.608;2022-11-15T10:25:17;6.07;;;2.90;;
52360;SDS011;38294;42.966;1.608;2022-11-15T10:27:52;5.47;;;2.40;;
52360;SDS011;38294;42.966;1.608;2022-11-15T10:30:28;5.20;;;2.88;;
52360;SDS011;38294;42.966;1.608;2022-11-15T10:32:57;3.95;;;2.63;;
52360;SDS011;38294;42.966;1.608;2022-11-15T10:35:27;4.53;;;2.88;;
52360;SDS011;38294;42.966;1.608;2022-11-15T10:38:04;4.20;;;2.80;;
52360;SDS011;38294;42.966;1.608;2022-11-15T10:40:31;6.63;;;2.60;;
52360;SDS011;38294;42.966;1.608;2022-11-15T10:43:05;4.78;;;3.28;;
52360;SDS011;38294;42.966;1.608;2022-11-15T10:45:38;7.28;;;2.85;;
52360;SDS011;38294;42.966;1.608;2022-11-15T10:50:39;5.00;;;3.50;;
52360;SDS011;38294;42.966;1.608;2022-11-15T10:53:10;12.85;;;5.22;;
52360;SDS011;38294;42.966;1.608;2022-11-15T10:55:42;6.90;;;2.88;;
52360;SDS011;38294;42.966;1.608;2022-11-15T11:01:19;7.40;;;3.83;;
52360;SDS011;38294;42.966;1.608;2022-11-15T11:04:07;7.22;;;3.88;;
52360;SDS011;38294;42.966;1.608;2022-11-15T11:06:47;9.20;;;4.22;;
52360;SDS011;38294;42.966;1.608;2022-11-15T11:11:58;5.72;;;3.50;;
52360;SDS011;38294;42.966;1.608;2022-11-15T11:14:29;3.90;;;3.30;;
52360;SDS011;38294;42.966;1.608;2022-11-15T11:17:11;7.07;;;3.92;;
52360;SDS011;38294;42.966;1.608;2022-11-15T11:26:14;5.20;;;3.28;;
52360;SDS011;38294;42.966;1.608;2022-11-15T11:28:56;7.93;;;3.78;;
52360;SDS011;38294;42.966;1.608;2022-11-15T11:31:43;7.03;;;4.40;;
52360;SDS011;38294;42.966;1.608;2022-11-15T11:37:23;5.82;;;3.30;;
52360;SDS011;38294;42.966;1.608;2022-11-15T11:43:08;7.88;;;3.22;;
52360;SDS011;38294;42.966;1.608;2022-11-15T11:49:10;10.35;;;4.60;;
52360;SDS011;38294;42.966;1.608;2022-11-15T11:51:43;4.15;;;3.33;;
52360;SDS011;38294;42.966;1.608;2022-11-15T11:56:55;6.18;;;3.50;;
52360;SDS011;38294;42.966;1.608;2022-11-15T11:59:39;5.10;;;3.70;;
52360;SDS011;38294;42.966;1.608;2022-11-15T12:02:16;4.75;;;3.58;;
52360;SDS011;38294;42.966;1.608;2022-11-15T12:05:03;5.25;;;3.40;;
52360;SDS011;38294;42.966;1.608;2022-11-15T12:07:34;5.15;;;3.30;;
52360;SDS011;38294;42.966;1.608;2022-11-15T12:10:04;4.93;;;3.50;;
52360;SDS011;38294;42.966;1.608;2022-11-15T12:15:40;6.35;;;3.60;;
52360;SDS011;38294;42.966;1.608;2022-11-15T12:18:08;6.60;;;3.90;;
52360;SDS011;38294;42.966;1.608;2022-11-15T12:20:40;8.32;;;3.92;;
52360;SDS011;38294;42.966;1.608;2022-11-15T12:23:19;4.60;;;3.80;;
52360;SDS011;38294;42.966;1.608;2022-11-15T12:26:02;5.32;;;3.50;;
52360;SDS011;38294;42.966;1.608;2022-11-15T12:33:43;5.97;;;3.53;;
52360;SDS011;38294;42.966;1.608;2022-11-15T12:41:20;5.78;;;3.78;;
52360;SDS011;38294;42.966;1.608;2022-11-15T12:43:49;5.88;;;3.88;;
52360;SDS011;38294;42.966;1.608;2022-11-15T12:46:20;4.75;;;3.83;;
52360;SDS011;38294;42.966;1.608;2022-11-15T12:52:06;6.65;;;4.03;;
52360;SDS011;38294;42.966;1.608;2022-11-15T12:57:21;7.22;;;3.40;;
52360;SDS011;38294;42.966;1.608;2022-11-15T13:02:24;5.65;;;3.85;;
52360;SDS011;38294;42.966;1.608;2022-11-15T13:04:51;4.78;;;3.72;;
52360;SDS011;38294;42.966;1.608;2022-11-15T13:07:54;7.82;;;3.53;;
52360;SDS011;38294;42.966;1.608;2022-11-15T13:27:52;4.05;;;3.33;;
52360;SDS011;38294;42.966;1.608;2022-11-15T13:30:20;5.82;;;3.78;;
52360;SDS011;38294;42.966;1.608;2022-11-15T13:32:48;6.15;;;3.30;;
52360;SDS011;38294;42.966;1.608;2022-11-15T13:35:28;4.43;;;3.22;;
52360;SDS011;38294;42.966;1.608;2022-11-15T13:37:56;5.10;;;3.55;;
52360;SDS011;38294;42.966;1.608;2022-11-15T13:40:29;4.45;;;3.10;;
52360;SDS011;38294;42.966;1.608;2022-11-15T13:46:03;5.57;;;3.80;;
52360;SDS011;38294;42.966;1.608;2022-11-15T13:48:33;6.55;;;3.92;;
52360;SDS011;38294;42.966;1.608;2022-11-15T13:50:59;5.28;;;3.30;;
52360;SDS011;38294;42.966;1.608;2022-11-15T13:53:32;5.35;;;3.95;;
52360;SDS011;38294;42.966;1.608;2022-11-15T13:55:58;5.80;;;4.28;;
52360;SDS011;38294;42.966;1.608;2022-11-15T13:58:24;5.45;;;4.00;;
52360;SDS011;38294;42.966;1.608;2022-11-15T14:00:58;4.78;;;3.35;;
52360;SDS011;38294;42.966;1.608;2022-11-15T14:03:37;5.88;;;3.80;;
52360;SDS011;38294;42.966;1.608;2022-11-15T14:06:12;6.72;;;3.80;;
52360;SDS011;38294;42.966;1.608;2022-11-15T14:11:34;12.70;;;3.97;;
52360;SDS011;38294;42.966;1.608;2022-11-15T14:16:41;11.60;;;4.40;;
52360;SDS011;38294;42.966;1.608;2022-11-15T14:24:33;7.68;;;3.90;;
52360;SDS011;38294;42.966;1.608;2022-11-15T14:29:51;8.25;;;4.50;;
52360;SDS011;38294;42.966;1.608;2022-11-15T14:34:44;6.15;;;3.90;;
52360;SDS011;38294;42.966;1.608;2022-11-15T14:37:22;7.25;;;4.13;;
52360;SDS011;38294;42.966;1.608;2022-11-15T14:39:48;6.22;;;4.18;;
52360;SDS011;38294;42.966;1.608;2022-11-15T14:42:13;6.05;;;4.32;;
52360;SDS011;38294;42.966;1.608;2022-11-15T14:44:39;5.93;;;4.40;;
52360;SDS011;38294;42.966;1.608;2022-11-15T14:47:04;8.32;;;4.57;;
52360;SDS011;38294;42.966;1.608;2022-11-15T14:49:30;4.88;;;3.75;;
52360;SDS011;38294;42.966;1.608;2022-11-15T14:51:55;7.22;;;3.67;;
52360;SDS011;38294;42.966;1.608;2022-11-15T14:54:21;5.65;;;4.00;;
52360;SDS011;38294;42.966;1.608;2022-11-15T14:56:47;6.10;;;4.25;;
52360;SDS011;38294;42.966;1.608;2022-11-15T14:59:12;8.32;;;4.47;;
52360;SDS011;38294;42.966;1.608;2022-11-15T15:01:37;11.23;;;4.32;;
52360;SDS011;38294;42.966;1.608;2022-11-15T15:04:03;6.88;;;4.38;;
52360;SDS011;38294;42.966;1.608;2022-11-15T15:06:29;8.90;;;4.20;;
52360;SDS011;38294;42.966;1.608;2022-11-15T15:08:55;6.57;;;3.72;;
52360;SDS011;38294;42.966;1.608;2022-11-15T15:11:22;6.38;;;3.80;;
52360;SDS011;38294;42.966;1.608;2022-11-15T15:13:51;6.13;;;3.67;;
52360;SDS011;38294;42.966;1.608;2022-11-15T15:16:17;4.32;;;3.13;;
52360;SDS011;38294;42.966;1.608;2022-11-15T15:18:43;3.97;;;3.30;;
52360;SDS011;38294;42.966;1.608;2022-11-15T15:24:04;5.30;;;3.10;;
52360;SDS011;38294;42.966;1.608;2022-11-15T15:26:29;5.78;;;3.60;;
52360;SDS011;38294;42.966;1.608;2022-11-15T15:28:58;5.10;;;3.78;;
52360;SDS011;38294;42.966;1.608;2022-11-15T15:31:24;6.13;;;4.20;;
52360;SDS011;38294;42.966;1.608;2022-11-15T15:33:49;6.72;;;4.38;;
52360;SDS011;38294;42.966;1.608;2022-11-15T15:36:16;6.78;;;4.28;;
52360;SDS011;38294;42.966;1.608;2022-11-15T15:38:43;7.93;;;5.38;;
52360;SDS011;38294;42.966;1.608;2022-11-15T15:41:13;8.57;;;5.95;;
52360;SDS011;38294;42.966;1.608;2022-11-15T15:43:40;9.75;;;5.32;;
52360;SDS011;38294;42.966;1.608;2022-11-15T15:46:12;7.65;;;5.13;;
52360;SDS011;38294;42.966;1.608;2022-11-15T15:48:40;12.93;;;6.72;;
52360;SDS011;38294;42.966;1.608;2022-11-15T15:51:06;9.15;;;5.78;;
52360;SDS011;38294;42.966;1.608;2022-11-15T15:53:32;8.07;;;5.97;;
52360;SDS011;38294;42.966;1.608;2022-11-15T15:55:58;9.70;;;5.72;;
52360;SDS011;38294;42.966;1.608;2022-11-15T15:58:24;7.80;;;5.65;;
52360;SDS011;38294;42.966;1.608;2022-11-15T16:00:49;7.75;;;4.90;;
52360;SDS011;38294;42.966;1.608;2022-11-15T16:03:15;12.48;;;5.28;;
52360;SDS011;38294;42.966;1.608;2022-11-15T16:05:40;10.77;;;5.40;;
52360;SDS011;38294;42.966;1.608;2022-11-15T16:08:09;6.68;;;4.55;;
52360;SDS011;38294;42.966;1.608;2022-11-15T16:10:43;5.18;;;4.28;;
52360;SDS011;38294;42.966;1.608;2022-11-15T16:13:08;7.43;;;5.00;;
52360;SDS011;38294;42.966;1.608;2022-11-15T16:15:34;8.40;;;5.43;;
52360;SDS011;38294;42.966;1.608;2022-11-15T16:18:00;9.18;;;5.82;;
52360;SDS011;38294;42.966;1.608;2022-11-15T16:23:07;12.13;;;6.05;;
52360;SDS011;38294;42.966;1.608;2022-11-15T16:25:44;11.65;;;6.15;;
52360;SDS011;38294;42.966;1.608;2022-11-15T16:30:43;10.95;;;7.13;;
52360;SDS011;38294;42.966;1.608;2022-11-15T16:33:09;20.95;;;12.77;;
52360;SDS011;38294;42.966;1.608;2022-11-15T16:35:35;20.80;;;12.55;;
52360;SDS011;38294;42.966;1.608;2022-11-15T16:38:00;19.40;;;11.65;;
52360;SDS011;38294;42.966;1.608;2022-11-15T16:40:30;16.58;;;7.22;;
52360;SDS011;38294;42.966;1.608;2022-11-15T16:42:57;12.55;;;8.00;;
52360;SDS011;38294;42.966;1.608;2022-11-15T16:45:24;17.63;;;10.40;;
52360;SDS011;38294;42.966;1.608;2022-11-15T16:47:53;16.90;;;11.48;;
52360;SDS011;38294;42.966;1.608;2022-11-15T16:50:23;21.55;;;13.02;;
52360;SDS011;38294;42.966;1.608;2022-11-15T16:52:57;19.10;;;10.98;;
52360;SDS011;38294;42.966;1.608;2022-11-15T16:55:25;16.10;;;11.15;;
52360;SDS011;38294;42.966;1.608;2022-11-15T16:57:52;14.65;;;10.75;;
52360;SDS011;38294;42.966;1.608;2022-11-15T17:00:19;18.20;;;10.43;;
52360;SDS011;38294;42.966;1.608;2022-11-15T17:02:46;17.10;;;11.50;;
52360;SDS011;38294;42.966;1.608;2022-11-15T17:05:13;19.35;;;11.50;;
52360;SDS011;38294;42.966;1.608;2022-11-15T17:07:40;16.33;;;10.15;;
52360;SDS011;38294;42.966;1.608;2022-11-15T17:10:08;18.27;;;10.98;;
52360;SDS011;38294;42.966;1.608;2022-11-15T17:12:36;16.08;;;9.30;;
52360;SDS011;38294;42.966;1.608;2022-11-15T17:15:02;18.10;;;10.20;;
52360;SDS011;38294;42.966;1.608;2022-11-15T17:17:29;19.17;;;9.48;;
52360;SDS011;38294;42.966;1.608;2022-11-15T17:19:55;19.05;;;10.60;;
52360;SDS011;38294;42.966;1.608;2022-11-15T17:22:21;20.70;;;12.10;;
52360;SDS011;38294;42.966;1.608;2022-11-15T17:24:47;20.42;;;12.70;;
52360;SDS011;38294;42.966;1.608;2022-11-15T17:27:12;22.10;;;12.32;;
52360;SDS011;38294;42.966;1.608;2022-11-15T17:29:39;18.52;;;10.80;;
52360;SDS011;38294;42.966;1.608;2022-11-15T17:32:05;20.77;;;11.20;;
52360;SDS011;38294;42.966;1.608;2022-11-15T17:34:31;17.48;;;10.20;;
52360;SDS011;38294;42.966;1.608;2022-11-15T17:36:57;18.20;;;10.43;;
52360;SDS011;38294;42.966;1.608;2022-11-15T17:39:22;16.38;;;10.50;;
52360;SDS011;38294;42.966;1.608;2022-11-15T17:41:50;16.48;;;9.68;;
52360;SDS011;38294;42.966;1.608;2022-11-15T17:44:15;22.55;;;10.65;;
52360;SDS011;38294;42.966;1.608;2022-11-15T17:46:42;18.45;;;10.68;;
52360;SDS011;38294;42.966;1.608;2022-11-15T17:49:08;75.30;;;30.13;;
52360;SDS011;38294;42.966;1.608;2022-11-15T17:51:33;18.70;;;10.40;;
52360;SDS011;38294;42.966;1.608;2022-11-15T17:53:59;20.63;;;9.45;;
52360;SDS011;38294;42.966;1.608;2022-11-15T17:56:25;17.40;;;10.88;;
52360;SDS011;38294;42.966;1.608;2022-11-15T17:58:56;19.23;;;11.65;;
52360;SDS011;38294;42.966;1.608;2022-11-15T18:01:24;27.50;;;13.20;;
52360;SDS011;38294;42.966;1.608;2022-11-15T18:03:52;26.00;;;13.52;;
52360;SDS011;38294;42.966;1.608;2022-11-15T18:06:19;18.15;;;11.38;;
52360;SDS011;38294;42.966;1.608;2022-11-15T18:08:46;20.60;;;12.85;;
52360;SDS011;38294;42.966;1.608;2022-11-15T18:11:17;18.40;;;11.15;;
52360;SDS011;38294;42.966;1.608;2022-11-15T18:13:46;13.45;;;8.38;;
52360;SDS011;38294;42.966;1.608;2022-11-15T18:16:14;16.50;;;7.95;;
52360;SDS011;38294;42.966;1.608;2022-11-15T18:18:42;13.45;;;8.35;;
52360;SDS011;38294;42.966;1.608;2022-11-15T18:21:14;51.45;;;21.00;;
52360;SDS011;38294;42.966;1.608;2022-11-15T18:23:43;22.90;;;13.23;;
52360;SDS011;38294;42.966;1.608;2022-11-15T18:26:09;25.27;;;12.18;;
52360;SDS011;38294;42.966;1.608;2022-11-15T18:33:40;18.65;;;10.90;;
52360;SDS011;38294;42.966;1.608;2022-11-15T18:36:07;23.90;;;10.75;;
52360;SDS011;38294;42.966;1.608;2022-11-15T18:38:36;18.80;;;11.05;;
52360;SDS011;38294;42.966;1.608;2022-11-15T18:41:09;19.08;;;11.65;;
52360;SDS011;38294;42.966;1.608;2022-11-15T18:43:37;23.30;;;11.80;;
52360;SDS011;38294;42.966;1.608;2022-11-15T18:46:07;18.13;;;10.20;;
52360;SDS011;38294;42.966;1.608;2022-11-15T18:48:38;20.13;;;12.02;;
52360;SDS011;38294;42.966;1.608;2022-11-15T18:51:06;27.73;;;14.13;;
52360;SDS011;38294;42.966;1.608;2022-11-15T18:53:42;21.75;;;13.10;;
52360;SDS011;38294;42.966;1.608;2022-11-15T18:56:10;25.13;;;14.80;;
52360;SDS011;38294;42.966;1.608;2022-11-15T18:58:39;26.63;;;14.35;;
52360;SDS011;38294;42.966;1.608;2022-11-15T19:01:13;25.48;;;13.82;;
52360;SDS011;38294;42.966;1.608;2022-11-15T19:03:41;24.02;;;13.98;;
52360;SDS011;38294;42.966;1.608;2022-11-15T19:06:09;25.67;;;14.23;;
52360;SDS011;38294;42.966;1.608;2022-11-15T19:08:40;23.20;;;13.38;;
52360;SDS011;38294;42.966;1.608;2022-11-15T19:11:07;24.98;;;14.45;;
52360;SDS011;38294;42.966;1.608;2022-11-15T19:16:27;30.35;;;17.35;;
52360;SDS011;38294;42.966;1.608;2022-11-15T19:18:59;34.20;;;17.60;;
52360;SDS011;38294;42.966;1.608;2022-11-15T19:21:26;31.63;;;18.00;;
52360;SDS011;38294;42.966;1.608;2022-11-15T19:23:53;33.20;;;18.90;;
52360;SDS011;38294;42.966;1.608;2022-11-15T19:26:19;33.08;;;17.42;;
52360;SDS011;38294;42.966;1.608;2022-11-15T19:28:53;36.05;;;19.23;;
52360;SDS011;38294;42.966;1.608;2022-11-15T19:31:20;28.45;;;15.85;;
52360;SDS011;38294;42.966;1.608;2022-11-15T19:33:48;22.00;;;12.60;;
52360;SDS011;38294;42.966;1.608;2022-11-15T19:36:15;20.23;;;8.40;;
52360;SDS011;38294;42.966;1.608;2022-11-15T19:38:44;20.23;;;11.25;;
52360;SDS011;38294;42.966;1.608;2022-11-15T19:41:10;16.52;;;8.27;;
52360;SDS011;38294;42.966;1.608;2022-11-15T19:43:38;11.77;;;7.35;;
52360;SDS011;38294;42.966;1.608;2022-11-15T19:46:05;28.00;;;7.90;;
52360;SDS011;38294;42.966;1.608;2022-11-15T19:48:32;13.50;;;7.25;;
52360;SDS011;38294;42.966;1.608;2022-11-15T19:51:02;12.75;;;6.68;;
52360;SDS011;38294;42.966;1.608;2022-11-15T19:53:31;12.07;;;5.53;;
52360;SDS011;38294;42.966;1.608;2022-11-15T19:56:04;11.38;;;6.22;;
52360;SDS011;38294;42.966;1.608;2022-11-15T19:58:31;9.65;;;6.15;;
52360;SDS011;38294;42.966;1.608;2022-11-15T20:01:07;11.40;;;5.85;;
52360;SDS011;38294;42.966;1.608;2022-11-15T20:03:43;13.88;;;6.65;;
52360;SDS011;38294;42.966;1.608;2022-11-15T20:06:10;11.85;;;6.80;;
52360;SDS011;38294;42.966;1.608;2022-11-15T20:08:37;10.77;;;7.05;;
52360;SDS011;38294;42.966;1.608;2022-11-15T20:11:03;12.00;;;7.20;;
52360;SDS011;38294;42.966;1.608;2022-11-15T20:13:29;9.63;;;6.10;;
52360;SDS011;38294;42.966;1.608;2022-11-15T20:15:55;13.63;;;6.90;;